createdAt,value
2022-11-28T01:21:43.404Z,100.00
2022-11-28T04:11:53.349Z,100.00
2022-11-28T04:13:00.385Z,100.00
2022-11-28T04:14:11.353Z,100.00
2022-11-28T04:15:21.500Z,100.00
2022-11-28T04:16:34.116Z,100.00
2022-11-28T04:17:43.524Z,100.00
2022-11-28T04:18:59.518Z,100.00
2022-11-28T04:20:06.268Z,100.00
2022-11-28T04:21:15.678Z,100.00
2022-11-28T04:22:27.744Z,100.00
2022-11-28T04:23:35.075Z,100.00
2022-11-28T04:24:41.868Z,100.00
2022-11-28T04:25:53.707Z,100.00
2022-11-28T04:27:02.532Z,100.00
2022-11-28T04:28:13.459Z,100.00
2022-11-28T04:30:39.079Z,100.00
2022-11-28T04:31:45.063Z,100.00
2022-11-28T04:32:55.570Z,100.00
2022-11-28T04:34:00.873Z,100.00
2022-11-28T04:35:09.996Z,100.00
2022-11-28T04:36:14.983Z,100.00
2022-11-28T04:37:22.698Z,100.00
2022-11-28T04:38:28.609Z,100.00
2022-11-28T04:39:37.500Z,100.00
2022-11-28T04:40:44.810Z,100.00
2022-11-28T04:41:56.491Z,100.00
2022-11-28T04:43:02.459Z,100.00
2022-11-28T04:44:13.379Z,100.00
2022-11-28T04:45:23.623Z,100.00
2022-11-28T04:46:34.116Z,100.00
2022-11-28T04:47:36.401Z,100.00
2022-11-28T04:48:41.343Z,100.00
2022-11-28T04:49:43.582Z,100.00
2022-11-28T04:51:00.730Z,100.00
2022-11-28T04:52:08.607Z,100.00
2022-11-28T04:53:18.295Z,100.00
2022-11-28T04:54:28.848Z,100.00
2022-11-28T04:55:41.389Z,100.00
2022-11-28T04:56:46.856Z,100.00
2022-11-28T04:57:59.356Z,100.00
2022-11-28T04:59:06.723Z,100.00
2022-11-28T05:00:15.375Z,100.00
2022-11-28T05:01:21.969Z,100.00
2022-11-28T05:02:28.272Z,100.00
2022-11-28T05:03:31.292Z,100.00
2022-11-28T05:04:38.808Z,100.00
2022-11-28T05:05:46.843Z,100.00
2022-11-28T05:06:52.438Z,100.00
2022-11-28T05:07:59.976Z,100.00
2022-11-28T05:09:08.828Z,100.00
2022-11-28T05:10:13.296Z,100.00
2022-11-28T05:11:17.882Z,100.00
2022-11-28T05:12:19.875Z,100.00
2022-11-28T05:13:29.516Z,100.00
2022-11-28T05:14:34.211Z,100.00
2022-11-28T05:15:38.892Z,100.00
2022-11-28T05:16:43.649Z,100.00
2022-11-28T05:17:46.762Z,100.00
2022-11-28T05:18:52.616Z,100.00
2022-11-28T05:19:55.426Z,100.00
2022-11-28T05:21:01.728Z,100.00
2022-11-28T05:22:04.009Z,100.00
2022-11-28T05:23:09.483Z,100.00
2022-11-28T05:24:12.838Z,100.00
2022-11-28T05:25:17.685Z,100.00
2022-11-28T05:26:38.327Z,100.00
2022-11-28T05:27:40.401Z,100.00
2022-11-28T05:28:46.729Z,100.00
2022-11-28T05:29:53.327Z,100.00
2022-11-28T05:31:00.904Z,100.00
2022-11-28T05:35:59.352Z,100.00
2022-11-28T05:37:01.584Z,100.00
2022-11-28T05:38:12.095Z,100.00
2022-11-28T05:39:16.011Z,100.00
2022-11-28T05:40:21.145Z,100.00
2022-11-28T05:41:32.032Z,100.00
2022-11-28T05:42:37.242Z,100.00
2022-11-28T05:43:39.308Z,100.00
2022-11-28T05:44:43.974Z,100.00
2022-11-28T05:45:48.827Z,100.00
2022-11-28T05:46:54.721Z,100.00
2022-11-28T05:47:57.113Z,100.00
2022-11-28T05:49:01.829Z,100.00
2022-11-28T05:50:04.445Z,100.00
2022-11-28T05:51:10.163Z,100.00
2022-11-28T05:52:14.805Z,100.00
2022-11-28T05:53:18.063Z,100.00
2022-11-28T05:54:25.331Z,100.00
2022-11-28T05:55:27.448Z,100.00
2022-11-28T05:56:32.310Z,100.00
2022-11-28T05:57:34.410Z,100.00
2022-11-28T05:58:39.664Z,100.00
2022-11-28T05:59:41.885Z,100.00
2022-11-28T06:00:46.684Z,100.00
2022-11-28T06:01:51.327Z,100.00
2022-11-28T06:03:00.989Z,100.00
2022-11-28T06:04:03.649Z,100.00
2022-11-28T06:05:34.742Z,100.00
2022-11-28T06:06:35.960Z,100.00
2022-11-28T06:07:38.078Z,100.00
2022-11-28T06:08:42.790Z,100.00
2022-11-28T06:09:45.404Z,100.00
2022-11-28T06:10:59.327Z,100.00
2022-11-28T06:12:04.268Z,100.00
2022-11-28T06:13:06.365Z,100.00
2022-11-28T06:14:11.878Z,100.00
2022-11-28T06:15:13.924Z,100.00
2022-11-28T06:16:20.229Z,100.00
2022-11-28T06:17:27.501Z,100.00
2022-11-28T06:18:29.541Z,100.00
2022-11-28T06:19:34.164Z,100.00
2022-11-28T06:20:36.193Z,100.00
2022-11-28T06:21:40.833Z,100.00
2022-11-28T06:22:42.897Z,100.00
2022-11-28T06:23:47.563Z,100.00
2022-11-28T06:24:51.693Z,100.00
2022-11-28T06:25:56.298Z,100.00
2022-11-28T06:26:58.393Z,100.00
2022-11-28T06:28:05.407Z,100.00
2022-11-28T06:29:10.067Z,100.00
2022-11-28T06:30:12.767Z,100.00
2022-11-28T06:31:19.429Z,100.00
2022-11-28T06:32:24.250Z,100.00
2022-11-28T06:33:29.483Z,100.00
2022-11-28T06:34:34.618Z,100.00
2022-11-28T06:35:36.750Z,100.00
2022-11-28T06:36:42.164Z,100.00
2022-11-28T06:37:44.312Z,100.00
2022-11-28T06:38:49.603Z,100.00
2022-11-28T06:39:54.240Z,100.00
2022-11-28T06:40:57.166Z,100.00
2022-11-28T06:42:01.948Z,100.00
2022-11-28T06:43:03.987Z,100.00
2022-11-28T06:44:08.858Z,100.00
2022-11-28T06:45:11.981Z,100.00
2022-11-28T06:46:18.912Z,100.00
2022-11-28T06:47:21.313Z,100.00
2022-11-28T06:48:26.458Z,100.00
2022-11-28T06:49:33.946Z,100.00
2022-11-28T06:50:38.531Z,100.00
2022-11-28T06:51:45.913Z,100.00
2022-11-28T06:52:47.921Z,100.00
2022-11-28T06:53:54.383Z,100.00
2022-11-28T06:54:56.463Z,100.00
2022-11-28T06:56:01.261Z,100.00
2022-11-28T06:57:06.210Z,100.00
2022-11-28T06:58:08.364Z,100.00
2022-11-28T06:59:15.128Z,100.00
2022-11-28T07:00:20.784Z,100.00
2022-11-28T07:01:24.438Z,100.00
2022-11-28T07:02:29.187Z,100.00
2022-11-28T07:03:31.390Z,100.00
2022-11-28T07:04:38.764Z,100.00
2022-11-28T07:05:40.973Z,100.00
2022-11-28T07:06:46.150Z,100.00
2022-11-28T07:07:54.217Z,100.00
2022-11-28T07:09:01.264Z,100.00
2022-11-28T07:10:04.401Z,100.00
2022-11-28T07:11:14.219Z,100.00
2022-11-28T07:12:16.355Z,100.00
2022-11-28T07:13:21.031Z,100.00
2022-11-28T07:14:23.062Z,100.00
2022-11-28T07:15:28.402Z,100.00
2022-11-28T07:16:32.895Z,100.00
2022-11-28T07:17:37.830Z,100.00
2022-11-28T07:18:39.885Z,100.00
2022-11-28T07:19:51.900Z,100.00
2022-11-28T07:20:56.758Z,100.00
2022-11-28T07:22:01.541Z,100.00
2022-11-28T07:23:03.604Z,100.00
2022-11-28T07:24:09.021Z,100.00
2022-11-28T07:25:11.330Z,100.00
2022-11-28T07:26:17.868Z,100.00
2022-11-28T07:27:21.350Z,100.00
2022-11-28T07:28:25.931Z,100.00
2022-11-28T07:29:35.800Z,100.00
2022-11-28T07:30:40.467Z,100.00
2022-11-28T07:31:42.638Z,100.00
2022-11-28T07:32:47.416Z,100.00
2022-11-28T07:33:51.235Z,100.00
2022-11-28T07:34:58.610Z,100.00
2022-11-28T07:36:01.686Z,100.00
2022-11-28T07:37:06.469Z,100.00
2022-11-28T07:38:08.477Z,100.00
2022-11-28T07:39:17.574Z,100.00
2022-11-28T07:40:20.753Z,100.00
2022-11-28T07:41:27.229Z,100.00
2022-11-28T07:42:29.865Z,100.00
2022-11-28T07:43:34.599Z,100.00
2022-11-28T07:44:39.476Z,100.00
2022-11-28T07:46:00.000Z,100.00
2022-11-28T07:47:06.010Z,100.00
2022-11-28T07:48:10.216Z,100.00
2022-11-28T07:49:15.601Z,100.00
2022-11-28T07:50:22.995Z,100.00
2022-11-28T07:51:30.171Z,100.00
2022-11-28T07:52:32.268Z,100.00
2022-11-28T07:53:36.960Z,100.00
2022-11-28T07:54:41.680Z,100.00
2022-11-28T07:55:43.721Z,100.00
2022-11-28T07:58:13.145Z,100.00
2022-11-28T07:59:17.929Z,100.00
2022-11-28T08:00:21.775Z,100.00
2022-11-28T08:01:28.715Z,100.00
2022-11-28T08:02:33.183Z,100.00
2022-11-28T08:03:37.913Z,100.00
2022-11-28T08:04:45.937Z,100.00
2022-11-28T08:06:00.179Z,100.00
2022-11-28T08:07:06.230Z,100.00
2022-11-28T08:08:08.389Z,100.00
2022-11-28T08:09:14.497Z,100.00
2022-11-28T08:10:20.225Z,100.00
2022-11-28T08:11:28.551Z,100.00
2022-11-28T08:12:33.306Z,100.00
2022-11-28T08:13:36.244Z,100.00
2022-11-28T08:14:41.288Z,100.00
2022-11-28T08:15:43.680Z,100.00
2022-11-28T08:16:49.762Z,100.00
2022-11-28T08:17:51.897Z,100.00
2022-11-28T08:18:57.266Z,100.00
2022-11-28T08:19:59.668Z,100.00
2022-11-28T08:21:12.238Z,100.00
2022-11-28T08:22:16.933Z,100.00
2022-11-28T08:23:21.644Z,100.00
2022-11-28T08:24:26.344Z,100.00
2022-11-28T08:25:31.055Z,100.00
2022-11-28T08:26:36.692Z,100.00
2022-11-28T08:27:38.982Z,100.00
2022-11-28T08:28:44.382Z,100.00
2022-11-28T08:29:53.172Z,100.00
2022-11-28T08:30:59.666Z,100.00
2022-11-28T08:32:04.451Z,100.00
2022-11-28T08:33:06.498Z,100.00
2022-11-28T08:34:12.968Z,100.00
2022-11-28T08:35:17.613Z,100.00
2022-11-28T08:36:22.700Z,100.00
2022-11-28T08:37:27.402Z,100.00
2022-11-28T08:38:29.913Z,100.00
2022-11-28T08:39:34.565Z,100.00
2022-11-28T08:40:36.866Z,100.00
2022-11-28T08:41:41.607Z,100.00
2022-11-28T08:42:43.617Z,100.00
2022-11-28T08:43:49.305Z,100.00
2022-11-28T08:44:51.448Z,100.00
2022-11-28T08:45:56.135Z,100.00
2022-11-28T08:47:00.875Z,100.00
2022-11-28T08:48:05.513Z,100.00
2022-11-28T08:49:10.357Z,100.00
2022-11-28T08:50:14.954Z,100.00
2022-11-28T08:51:18.851Z,100.00
2022-11-28T08:52:26.545Z,100.00
2022-11-28T08:53:28.602Z,100.00
2022-11-28T08:54:33.287Z,100.00
2022-11-28T08:55:41.814Z,100.00
2022-11-28T08:56:47.398Z,100.00
2022-11-28T08:57:52.120Z,100.00
2022-11-28T08:58:56.752Z,100.00
2022-11-28T09:00:01.650Z,100.00
2022-11-28T09:01:06.869Z,100.00
2022-11-28T09:02:13.410Z,100.00
2022-11-28T09:03:21.050Z,100.00
2022-11-28T09:04:26.602Z,100.00
2022-11-28T09:05:29.177Z,100.00
2022-11-28T09:06:33.909Z,100.00
2022-11-28T09:07:41.265Z,100.00
2022-11-28T09:08:43.688Z,100.00
2022-11-28T09:09:49.266Z,100.00
2022-11-28T09:10:54.111Z,100.00
2022-11-28T09:11:59.143Z,100.00
2022-11-28T09:13:01.217Z,100.00
2022-11-28T09:14:05.919Z,100.00
2022-11-28T09:15:12.284Z,100.00
2022-11-28T09:16:18.186Z,100.00
2022-11-28T09:17:23.206Z,100.00
2022-11-28T09:18:27.160Z,100.00
2022-11-28T09:19:32.007Z,100.00
2022-11-28T09:20:34.101Z,100.00
2022-11-28T09:21:38.959Z,100.00
2022-11-28T09:22:47.372Z,100.00
2022-11-28T09:23:52.019Z,100.00
2022-11-28T09:24:54.037Z,100.00
2022-11-28T09:25:58.780Z,100.00
2022-11-28T09:27:03.603Z,100.00
2022-11-28T09:28:06.564Z,100.00
2022-11-28T09:29:11.357Z,100.00
2022-11-28T09:30:16.995Z,100.00
2022-11-28T09:31:20.162Z,100.00
2022-11-28T09:32:24.998Z,100.00
2022-11-28T09:33:29.781Z,100.00
2022-11-28T09:34:34.932Z,100.00
2022-11-28T09:35:38.383Z,100.00
2022-11-28T09:36:43.207Z,100.00
2022-11-28T09:37:47.867Z,100.00
2022-11-28T09:38:52.893Z,100.00
2022-11-28T09:40:12.578Z,100.00
2022-11-28T09:41:40.906Z,100.00
2022-11-28T09:42:50.161Z,100.00
2022-11-28T09:43:55.267Z,100.00
2022-11-28T09:45:03.271Z,100.00
2022-11-28T09:46:14.167Z,100.00
2022-11-28T09:47:24.692Z,100.00
2022-11-28T09:48:34.854Z,97.44
2022-11-28T09:49:47.758Z,95.82
2022-11-28T09:50:58.469Z,97.73
2022-11-28T09:52:09.303Z,96.90
2022-11-28T09:53:24.093Z,95.40
2022-11-28T09:54:41.287Z,91.08
2022-11-28T09:55:54.219Z,90.38
2022-11-28T09:57:00.048Z,89.95
2022-11-28T09:58:11.985Z,89.46
2022-11-28T09:59:28.026Z,88.79
2022-11-28T10:00:40.632Z,88.07
2022-11-28T10:01:55.038Z,87.11
2022-11-28T10:03:16.920Z,85.87
2022-11-28T10:04:30.430Z,85.06
2022-11-28T10:05:41.069Z,84.69
2022-11-28T10:06:56.648Z,84.44
2022-11-28T10:08:50.818Z,84.24
2022-11-28T10:10:16.026Z,86.05
2022-11-28T10:11:47.273Z,88.69
2022-11-28T10:13:13.994Z,94.30
2022-11-28T10:14:45.402Z,99.19
2022-11-28T10:15:58.691Z,100.00
2022-11-28T10:17:16.914Z,100.00
2022-11-28T10:18:40.339Z,100.00
2022-11-28T10:19:54.852Z,100.00
2022-11-28T10:21:03.796Z,100.00
2022-11-28T10:22:16.419Z,100.00
2022-11-28T10:23:29.928Z,100.00
2022-11-28T10:24:41.101Z,100.00
2022-11-28T10:25:51.505Z,100.00
2022-11-28T10:27:01.572Z,100.00
2022-11-28T10:28:06.826Z,100.00
2022-11-28T10:29:26.356Z,100.00
2022-11-28T10:30:36.408Z,100.00
2022-11-28T10:31:45.015Z,100.00
2022-11-28T10:32:53.749Z,100.00
2022-11-28T10:34:02.026Z,100.00
2022-11-28T10:35:10.296Z,100.00
2022-11-28T10:36:19.953Z,100.00
2022-11-28T10:37:28.984Z,100.00
2022-11-28T10:38:37.797Z,100.00
2022-11-28T10:39:47.322Z,100.00
2022-11-28T10:40:56.173Z,100.00
2022-11-28T10:42:16.680Z,100.00
2022-11-28T10:43:29.363Z,100.00
2022-11-28T10:44:41.364Z,100.00
2022-11-28T10:45:52.862Z,100.00
2022-11-28T10:47:06.682Z,100.00
2022-11-28T10:48:39.057Z,97.66
2022-11-28T10:50:01.380Z,93.76
2022-11-28T10:51:21.517Z,93.47
2022-11-28T10:52:33.585Z,94.25
2022-11-28T10:53:46.985Z,97.31
2022-11-28T10:55:20.101Z,99.24
2022-11-28T10:56:37.582Z,96.06
2022-11-28T10:57:49.901Z,96.33
2022-11-28T10:59:01.442Z,98.69
2022-11-28T11:00:09.013Z,100.00
2022-11-28T11:01:12.630Z,100.00
2022-11-28T11:02:24.392Z,100.00
2022-11-28T11:03:30.379Z,100.00
2022-11-28T11:04:38.935Z,100.00
2022-11-28T11:05:44.214Z,100.00
2022-11-28T11:07:09.950Z,100.00
2022-11-28T11:08:22.994Z,100.00
2022-11-28T11:09:28.062Z,100.00
2022-11-28T11:10:41.197Z,100.00
2022-11-28T11:11:58.122Z,100.00
2022-11-28T11:13:00.315Z,99.47
2022-11-28T11:14:07.555Z,100.00
2022-11-28T11:15:22.658Z,98.17
2022-11-28T11:16:27.603Z,96.99
2022-11-28T11:17:37.878Z,93.46
2022-11-28T11:18:56.029Z,88.79
2022-11-28T11:19:58.505Z,86.53
2022-11-28T11:21:12.351Z,85.96
2022-11-28T11:22:21.978Z,83.54
2022-11-28T11:23:26.839Z,81.74
2022-11-28T11:24:29.061Z,81.90
2022-11-28T11:25:37.472Z,78.16
2022-11-28T11:26:47.252Z,78.99
2022-11-28T11:27:51.310Z,78.76
2022-11-28T11:28:57.151Z,77.18
2022-11-28T11:29:59.771Z,74.69
2022-11-28T11:31:07.903Z,72.26
2022-11-28T11:32:22.808Z,75.96
2022-11-28T11:33:30.584Z,72.23
2022-11-28T11:34:40.556Z,70.19
